sensor_id;sensor_type;location;lat;lon;timestamp;temperature;humidity
73572;DHT22;61854;48.510;-2.770;2023-08-07T00:00:22;14.70;99.90
73572;DHT22;61854;48.510;-2.770;2023-08-07T00:02:48;14.70;99.90
73572;DHT22;61854;48.510;-2.770;2023-08-07T00:05:14;14.60;99.90
73572;DHT22;61854;48.510;-2.770;2023-08-07T00:07:40;14.70;99.90
73572;DHT22;61854;48.510;-2.770;2023-08-07T00:10:06;14.60;99.90
73572;DHT22;61854;48.510;-2.770;2023-08-07T00:12:32;14.60;99.90
73572;DHT22;61854;48.510;-2.770;2023-08-07T00:14:58;14.60;99.90
73572;DHT22;61854;48.510;-2.770;2023-08-07T00:17:23;14.60;99.90
73572;DHT22;61854;48.510;-2.770;2023-08-07T00:19:49;14.50;99.90
73572;DHT22;61854;48.510;-2.770;2023-08-07T00:22:14;14.50;99.90
73572;DHT22;61854;48.510;-2.770;2023-08-07T00:24:40;14.50;99.90
73572;DHT22;61854;48.510;-2.770;2023-08-07T00:27:07;14.50;99.90
73572;DHT22;61854;48.510;-2.770;2023-08-07T00:29:35;14.60;99.90
73572;DHT22;61854;48.510;-2.770;2023-08-07T00:32:02;14.60;99.90
73572;DHT22;61854;48.510;-2.770;2023-08-07T00:34:28;14.50;99.90
73572;DHT22;61854;48.510;-2.770;2023-08-07T00:36:53;14.40;99.90
73572;DHT22;61854;48.510;-2.770;2023-08-07T00:39:19;14.40;99.90
73572;DHT22;61854;48.510;-2.770;2023-08-07T00:41:45;14.50;99.90
73572;DHT22;61854;48.510;-2.770;2023-08-07T00:44:10;14.50;99.90
73572;DHT22;61854;48.510;-2.770;2023-08-07T00:46:36;14.50;99.90
73572;DHT22;61854;48.510;-2.770;2023-08-07T00:49:04;14.50;99.90
73572;DHT22;61854;48.510;-2.770;2023-08-07T00:51:31;14.50;99.90
73572;DHT22;61854;48.510;-2.770;2023-08-07T00:53:56;14.60;99.90
73572;DHT22;61854;48.510;-2.770;2023-08-07T00:56:23;14.50;99.90
73572;DHT22;61854;48.510;-2.770;2023-08-07T00:58:49;14.60;99.90
73572;DHT22;61854;48.510;-2.770;2023-08-07T01:01:15;14.50;99.90
73572;DHT22;61854;48.510;-2.770;2023-08-07T01:03:41;14.40;99.90
73572;DHT22;61854;48.510;-2.770;2023-08-07T01:06:07;14.40;99.90
73572;DHT22;61854;48.510;-2.770;2023-08-07T01:08:33;14.40;99.90
73572;DHT22;61854;48.510;-2.770;2023-08-07T01:13:46;14.30;99.90
73572;DHT22;61854;48.510;-2.770;2023-08-07T01:16:21;14.30;99.90
73572;DHT22;61854;48.510;-2.770;2023-08-07T01:18:49;14.30;99.90
73572;DHT22;61854;48.510;-2.770;2023-08-07T01:21:20;14.40;99.90
73572;DHT22;61854;48.510;-2.770;2023-08-07T01:23:47;14.40;99.90
73572;DHT22;61854;48.510;-2.770;2023-08-07T01:26:14;14.30;99.90
73572;DHT22;61854;48.510;-2.770;2023-08-07T01:28:58;14.40;99.90
73572;DHT22;61854;48.510;-2.770;2023-08-07T01:31:29;14.30;99.90
73572;DHT22;61854;48.510;-2.770;2023-08-07T01:34:04;14.40;99.90
73572;DHT22;61854;48.510;-2.770;2023-08-07T01:36:30;14.40;99.90
73572;DHT22;61854;48.510;-2.770;2023-08-07T01:38:57;14.30;99.90
73572;DHT22;61854;48.510;-2.770;2023-08-07T01:41:24;14.30;99.90
73572;DHT22;61854;48.510;-2.770;2023-08-07T01:43:51;14.30;99.90
73572;DHT22;61854;48.510;-2.770;2023-08-07T01:46:17;14.30;99.90
73572;DHT22;61854;48.510;-2.770;2023-08-07T01:48:42;14.30;99.90
73572;DHT22;61854;48.510;-2.770;2023-08-07T01:51:08;14.20;99.90
73572;DHT22;61854;48.510;-2.770;2023-08-07T01:53:34;14.20;99.90
73572;DHT22;61854;48.510;-2.770;2023-08-07T01:55:59;14.20;99.90
73572;DHT22;61854;48.510;-2.770;2023-08-07T01:58:25;14.20;99.90
73572;DHT22;61854;48.510;-2.770;2023-08-07T02:00:51;14.20;99.90
73572;DHT22;61854;48.510;-2.770;2023-08-07T02:03:17;14.20;99.90
73572;DHT22;61854;48.510;-2.770;2023-08-07T02:05:45;14.20;99.90
73572;DHT22;61854;48.510;-2.770;2023-08-07T02:08:11;14.20;99.90
73572;DHT22;61854;48.510;-2.770;2023-08-07T02:10:37;14.20;99.90
73572;DHT22;61854;48.510;-2.770;2023-08-07T02:13:03;14.20;99.90
73572;DHT22;61854;48.510;-2.770;2023-08-07T02:15:29;14.20;99.90
73572;DHT22;61854;48.510;-2.770;2023-08-07T02:17:54;14.10;99.90
73572;DHT22;61854;48.510;-2.770;2023-08-07T02:20:20;14.20;99.90
73572;DHT22;61854;48.510;-2.770;2023-08-07T02:22:46;14.10;99.90
73572;DHT22;61854;48.510;-2.770;2023-08-07T02:25:11;14.10;99.90
73572;DHT22;61854;48.510;-2.770;2023-08-07T02:27:37;14.10;99.90
73572;DHT22;61854;48.510;-2.770;2023-08-07T02:30:03;14.00;99.90
73572;DHT22;61854;48.510;-2.770;2023-08-07T02:32:29;14.00;99.90
73572;DHT22;61854;48.510;-2.770;2023-08-07T02:34:55;14.10;99.90
73572;DHT22;61854;48.510;-2.770;2023-08-07T02:37:20;14.10;99.90
73572;DHT22;61854;48.510;-2.770;2023-08-07T02:39:46;14.10;99.90
73572;DHT22;61854;48.510;-2.770;2023-08-07T02:42:12;14.00;99.90
73572;DHT22;61854;48.510;-2.770;2023-08-07T02:44:38;14.00;99.90
73572;DHT22;61854;48.510;-2.770;2023-08-07T02:47:04;14.00;99.90
73572;DHT22;61854;48.510;-2.770;2023-08-07T02:49:30;14.00;99.90
73572;DHT22;61854;48.510;-2.770;2023-08-07T02:51:55;14.00;99.90
73572;DHT22;61854;48.510;-2.770;2023-08-07T02:54:21;14.00;99.90
73572;DHT22;61854;48.510;-2.770;2023-08-07T02:56:46;13.90;99.90
73572;DHT22;61854;48.510;-2.770;2023-08-07T02:59:14;14.00;99.90
73572;DHT22;61854;48.510;-2.770;2023-08-07T03:01:40;14.00;99.90
73572;DHT22;61854;48.510;-2.770;2023-08-07T03:04:06;14.00;99.90
73572;DHT22;61854;48.510;-2.770;2023-08-07T03:06:32;14.00;99.90
73572;DHT22;61854;48.510;-2.770;2023-08-07T03:08:57;14.00;99.90
73572;DHT22;61854;48.510;-2.770;2023-08-07T03:11:23;14.00;99.90
73572;DHT22;61854;48.510;-2.770;2023-08-07T03:13:49;13.90;99.90
73572;DHT22;61854;48.510;-2.770;2023-08-07T03:16:15;13.90;99.90
73572;DHT22;61854;48.510;-2.770;2023-08-07T03:18:40;13.90;99.90
73572;DHT22;61854;48.510;-2.770;2023-08-07T03:21:06;13.90;99.90
73572;DHT22;61854;48.510;-2.770;2023-08-07T03:23:32;13.90;99.90
73572;DHT22;61854;48.510;-2.770;2023-08-07T03:26:06;13.90;99.90
73572;DHT22;61854;48.510;-2.770;2023-08-07T03:28:32;13.80;99.90
73572;DHT22;61854;48.510;-2.770;2023-08-07T03:30:58;13.80;99.90
73572;DHT22;61854;48.510;-2.770;2023-08-07T03:33:24;13.80;99.90
73572;DHT22;61854;48.510;-2.770;2023-08-07T03:35:49;13.80;99.90
73572;DHT22;61854;48.510;-2.770;2023-08-07T03:38:15;13.80;99.90
73572;DHT22;61854;48.510;-2.770;2023-08-07T03:40:41;13.70;99.90
73572;DHT22;61854;48.510;-2.770;2023-08-07T03:43:06;13.70;99.90
73572;DHT22;61854;48.510;-2.770;2023-08-07T03:45:32;13.70;99.90
73572;DHT22;61854;48.510;-2.770;2023-08-07T03:47:58;13.70;99.90
73572;DHT22;61854;48.510;-2.770;2023-08-07T03:50:23;13.70;99.90
73572;DHT22;61854;48.510;-2.770;2023-08-07T03:52:49;13.80;99.90
73572;DHT22;61854;48.510;-2.770;2023-08-07T03:55:14;13.70;99.90
73572;DHT22;61854;48.510;-2.770;2023-08-07T03:57:40;13.70;99.90
73572;DHT22;61854;48.510;-2.770;2023-08-07T04:00:06;13.70;99.90
73572;DHT22;61854;48.510;-2.770;2023-08-07T04:02:32;13.70;99.90
73572;DHT22;61854;48.510;-2.770;2023-08-07T04:04:58;13.60;99.90
73572;DHT22;61854;48.510;-2.770;2023-08-07T04:07:24;13.60;99.90
73572;DHT22;61854;48.510;-2.770;2023-08-07T04:09:49;13.60;99.90
73572;DHT22;61854;48.510;-2.770;2023-08-07T04:12:15;13.60;99.90
73572;DHT22;61854;48.510;-2.770;2023-08-07T04:14:40;13.60;99.90
73572;DHT22;61854;48.510;-2.770;2023-08-07T04:17:06;13.60;99.90
73572;DHT22;61854;48.510;-2.770;2023-08-07T04:19:32;13.60;99.90
73572;DHT22;61854;48.510;-2.770;2023-08-07T04:21:58;13.60;99.90
73572;DHT22;61854;48.510;-2.770;2023-08-07T04:24:24;13.70;99.90
73572;DHT22;61854;48.510;-2.770;2023-08-07T04:26:49;13.70;99.90
73572;DHT22;61854;48.510;-2.770;2023-08-07T04:29:15;13.70;99.90
73572;DHT22;61854;48.510;-2.770;2023-08-07T04:31:40;13.70;99.90
73572;DHT22;61854;48.510;-2.770;2023-08-07T04:34:06;13.60;99.90
73572;DHT22;61854;48.510;-2.770;2023-08-07T04:36:32;13.60;99.90
73572;DHT22;61854;48.510;-2.770;2023-08-07T04:38:58;13.60;99.90
73572;DHT22;61854;48.510;-2.770;2023-08-07T04:41:24;13.60;99.90
73572;DHT22;61854;48.510;-2.770;2023-08-07T04:43:49;13.50;99.90
73572;DHT22;61854;48.510;-2.770;2023-08-07T04:46:15;13.50;99.90
73572;DHT22;61854;48.510;-2.770;2023-08-07T04:48:41;13.60;99.90
73572;DHT22;61854;48.510;-2.770;2023-08-07T04:51:06;13.50;99.90
73572;DHT22;61854;48.510;-2.770;2023-08-07T04:53:32;13.60;99.90
73572;DHT22;61854;48.510;-2.770;2023-08-07T04:55:59;13.60;99.90
73572;DHT22;61854;48.510;-2.770;2023-08-07T04:58:25;13.60;99.90
73572;DHT22;61854;48.510;-2.770;2023-08-07T05:00:57;13.50;99.90
73572;DHT22;61854;48.510;-2.770;2023-08-07T05:03:24;13.50;99.90
73572;DHT22;61854;48.510;-2.770;2023-08-07T05:05:50;13.60;99.90
73572;DHT22;61854;48.510;-2.770;2023-08-07T05:08:16;13.50;99.90
73572;DHT22;61854;48.510;-2.770;2023-08-07T05:10:42;13.60;99.90
73572;DHT22;61854;48.510;-2.770;2023-08-07T05:13:08;13.60;99.90
73572;DHT22;61854;48.510;-2.770;2023-08-07T05:15:33;13.60;99.90
73572;DHT22;61854;48.510;-2.770;2023-08-07T05:17:59;13.60;99.90
73572;DHT22;61854;48.510;-2.770;2023-08-07T05:20:25;13.70;99.90
73572;DHT22;61854;48.510;-2.770;2023-08-07T05:22:51;13.70;99.90
73572;DHT22;61854;48.510;-2.770;2023-08-07T05:25:17;13.70;99.90
73572;DHT22;61854;48.510;-2.770;2023-08-07T05:27:46;13.80;99.90
73572;DHT22;61854;48.510;-2.770;2023-08-07T05:30:13;13.90;99.90
73572;DHT22;61854;48.510;-2.770;2023-08-07T05:32:39;13.90;99.90
73572;DHT22;61854;48.510;-2.770;2023-08-07T05:35:05;13.80;99.90
73572;DHT22;61854;48.510;-2.770;2023-08-07T05:37:32;13.90;99.90
73572;DHT22;61854;48.510;-2.770;2023-08-07T05:39:58;14.00;99.90
73572;DHT22;61854;48.510;-2.770;2023-08-07T05:42:24;13.90;99.90
73572;DHT22;61854;48.510;-2.770;2023-08-07T05:44:49;13.90;99.90
73572;DHT22;61854;48.510;-2.770;2023-08-07T05:47:15;14.00;99.90
73572;DHT22;61854;48.510;-2.770;2023-08-07T05:49:41;14.00;99.90
73572;DHT22;61854;48.510;-2.770;2023-08-07T05:52:07;13.90;99.90
73572;DHT22;61854;48.510;-2.770;2023-08-07T05:54:33;13.90;99.90
73572;DHT22;61854;48.510;-2.770;2023-08-07T05:56:59;14.00;99.90
73572;DHT22;61854;48.510;-2.770;2023-08-07T05:59:24;13.80;99.90
73572;DHT22;61854;48.510;-2.770;2023-08-07T06:01:50;13.80;99.90
73572;DHT22;61854;48.510;-2.770;2023-08-07T06:04:17;13.80;99.90
73572;DHT22;61854;48.510;-2.770;2023-08-07T06:06:42;13.80;99.90
73572;DHT22;61854;48.510;-2.770;2023-08-07T06:09:08;13.90;99.90
73572;DHT22;61854;48.510;-2.770;2023-08-07T06:11:34;13.90;99.90
73572;DHT22;61854;48.510;-2.770;2023-08-07T06:14:00;13.90;99.90
73572;DHT22;61854;48.510;-2.770;2023-08-07T06:16:26;13.90;99.90
73572;DHT22;61854;48.510;-2.770;2023-08-07T06:18:53;14.20;99.90
73572;DHT22;61854;48.510;-2.770;2023-08-07T06:21:19;14.40;99.90
73572;DHT22;61854;48.510;-2.770;2023-08-07T06:23:45;14.30;99.90
73572;DHT22;61854;48.510;-2.770;2023-08-07T06:26:12;14.40;99.90
73572;DHT22;61854;48.510;-2.770;2023-08-07T06:28:38;14.40;99.90
73572;DHT22;61854;48.510;-2.770;2023-08-07T06:31:08;14.40;99.90
73572;DHT22;61854;48.510;-2.770;2023-08-07T06:33:35;14.50;99.90
73572;DHT22;61854;48.510;-2.770;2023-08-07T06:36:01;14.80;99.90
73572;DHT22;61854;48.510;-2.770;2023-08-07T06:38:28;15.20;99.90
73572;DHT22;61854;48.510;-2.770;2023-08-07T06:40:53;15.60;99.90
73572;DHT22;61854;48.510;-2.770;2023-08-07T06:43:19;15.70;99.30
73572;DHT22;61854;48.510;-2.770;2023-08-07T06:45:52;15.30;99.70
73572;DHT22;61854;48.510;-2.770;2023-08-07T06:48:18;15.10;99.90
73572;DHT22;61854;48.510;-2.770;2023-08-07T06:50:44;15.10;99.90
73572;DHT22;61854;48.510;-2.770;2023-08-07T06:53:09;15.00;99.90
73572;DHT22;61854;48.510;-2.770;2023-08-07T06:55:35;15.10;99.90
73572;DHT22;61854;48.510;-2.770;2023-08-07T06:58:01;15.40;99.90
73572;DHT22;61854;48.510;-2.770;2023-08-07T07:00:26;15.70;99.90
73572;DHT22;61854;48.510;-2.770;2023-08-07T07:02:52;15.80;99.90
73572;DHT22;61854;48.510;-2.770;2023-08-07T07:05:18;15.90;99.60
73572;DHT22;61854;48.510;-2.770;2023-08-07T07:07:44;15.70;99.90
73572;DHT22;61854;48.510;-2.770;2023-08-07T07:10:10;15.80;99.50
73572;DHT22;61854;48.510;-2.770;2023-08-07T07:12:36;15.80;99.40
73572;DHT22;61854;48.510;-2.770;2023-08-07T07:15:02;15.70;99.50
73572;DHT22;61854;48.510;-2.770;2023-08-07T07:17:28;15.70;99.50
73572;DHT22;61854;48.510;-2.770;2023-08-07T07:19:53;15.60;99.70
73572;DHT22;61854;48.510;-2.770;2023-08-07T07:22:19;15.60;99.90
73572;DHT22;61854;48.510;-2.770;2023-08-07T07:24:45;15.60;99.90
73572;DHT22;61854;48.510;-2.770;2023-08-07T07:27:10;15.70;99.90
73572;DHT22;61854;48.510;-2.770;2023-08-07T07:29:36;15.70;99.90
73572;DHT22;61854;48.510;-2.770;2023-08-07T07:32:02;15.70;99.90
73572;DHT22;61854;48.510;-2.770;2023-08-07T07:34:33;15.60;99.90
73572;DHT22;61854;48.510;-2.770;2023-08-07T07:37:02;15.70;99.90
73572;DHT22;61854;48.510;-2.770;2023-08-07T07:39:35;15.80;99.90
73572;DHT22;61854;48.510;-2.770;2023-08-07T07:42:06;15.90;99.80
73572;DHT22;61854;48.510;-2.770;2023-08-07T07:44:33;16.00;99.70
73572;DHT22;61854;48.510;-2.770;2023-08-07T07:47:00;16.00;99.90
73572;DHT22;61854;48.510;-2.770;2023-08-07T07:49:26;16.00;99.20
73572;DHT22;61854;48.510;-2.770;2023-08-07T07:51:53;16.00;99.00
73572;DHT22;61854;48.510;-2.770;2023-08-07T07:54:18;16.10;99.10
73572;DHT22;61854;48.510;-2.770;2023-08-07T07:56:44;15.90;99.30
73572;DHT22;61854;48.510;-2.770;2023-08-07T07:59:09;16.00;99.50
73572;DHT22;61854;48.510;-2.770;2023-08-07T08:01:37;16.20;98.80
73572;DHT22;61854;48.510;-2.770;2023-08-07T08:04:03;16.20;98.60
73572;DHT22;61854;48.510;-2.770;2023-08-07T08:06:29;16.40;98.30
73572;DHT22;61854;48.510;-2.770;2023-08-07T08:08:56;16.40;97.80
73572;DHT22;61854;48.510;-2.770;2023-08-07T08:11:22;16.30;97.80
73572;DHT22;61854;48.510;-2.770;2023-08-07T08:13:48;16.40;97.10
73572;DHT22;61854;48.510;-2.770;2023-08-07T08:16:14;16.20;97.50
73572;DHT22;61854;48.510;-2.770;2023-08-07T08:18:40;16.40;97.50
73572;DHT22;61854;48.510;-2.770;2023-08-07T08:21:06;16.30;97.30
73572;DHT22;61854;48.510;-2.770;2023-08-07T08:23:32;16.30;97.00
73572;DHT22;61854;48.510;-2.770;2023-08-07T08:25:57;16.40;96.00
73572;DHT22;61854;48.510;-2.770;2023-08-07T08:28:23;16.30;95.50
73572;DHT22;61854;48.510;-2.770;2023-08-07T08:30:49;16.30;96.40
73572;DHT22;61854;48.510;-2.770;2023-08-07T08:33:14;16.30;96.60
73572;DHT22;61854;48.510;-2.770;2023-08-07T08:35:40;16.40;96.50
73572;DHT22;61854;48.510;-2.770;2023-08-07T08:38:06;16.60;96.20
73572;DHT22;61854;48.510;-2.770;2023-08-07T08:40:33;16.60;96.00
73572;DHT22;61854;48.510;-2.770;2023-08-07T08:43:00;16.60;94.90
73572;DHT22;61854;48.510;-2.770;2023-08-07T08:45:27;16.80;94.10
73572;DHT22;61854;48.510;-2.770;2023-08-07T08:47:55;16.60;94.30
73572;DHT22;61854;48.510;-2.770;2023-08-07T08:50:23;16.90;93.90
73572;DHT22;61854;48.510;-2.770;2023-08-07T08:52:51;16.90;93.50
73572;DHT22;61854;48.510;-2.770;2023-08-07T08:55:20;16.70;92.60
73572;DHT22;61854;48.510;-2.770;2023-08-07T08:57:46;17.00;92.30
73572;DHT22;61854;48.510;-2.770;2023-08-07T09:00:14;17.00;92.50
73572;DHT22;61854;48.510;-2.770;2023-08-07T09:02:45;17.10;91.20
73572;DHT22;61854;48.510;-2.770;2023-08-07T09:05:10;16.90;90.60
73572;DHT22;61854;48.510;-2.770;2023-08-07T09:07:37;17.00;92.30
73572;DHT22;61854;48.510;-2.770;2023-08-07T09:10:03;17.20;91.60
73572;DHT22;61854;48.510;-2.770;2023-08-07T09:12:32;17.20;88.70
73572;DHT22;61854;48.510;-2.770;2023-08-07T09:14:58;17.20;87.80
73572;DHT22;61854;48.510;-2.770;2023-08-07T09:17:28;17.30;88.10
73572;DHT22;61854;48.510;-2.770;2023-08-07T09:19:58;17.30;89.70
73572;DHT22;61854;48.510;-2.770;2023-08-07T09:22:23;17.50;89.10
73572;DHT22;61854;48.510;-2.770;2023-08-07T09:24:49;17.40;87.90
73572;DHT22;61854;48.510;-2.770;2023-08-07T09:27:15;17.40;86.20
73572;DHT22;61854;48.510;-2.770;2023-08-07T09:29:41;17.40;87.20
73572;DHT22;61854;48.510;-2.770;2023-08-07T09:32:14;17.60;84.40
73572;DHT22;61854;48.510;-2.770;2023-08-07T09:34:41;17.50;83.90
73572;DHT22;61854;48.510;-2.770;2023-08-07T09:37:08;17.60;84.70
73572;DHT22;61854;48.510;-2.770;2023-08-07T09:39:37;17.60;87.00
73572;DHT22;61854;48.510;-2.770;2023-08-07T09:42:13;18.00;80.20
73572;DHT22;61854;48.510;-2.770;2023-08-07T09:44:39;18.00;77.30
73572;DHT22;61854;48.510;-2.770;2023-08-07T09:47:15;17.80;76.50
73572;DHT22;61854;48.510;-2.770;2023-08-07T09:49:42;17.80;77.00
73572;DHT22;61854;48.510;-2.770;2023-08-07T09:52:09;17.90;77.10
73572;DHT22;61854;48.510;-2.770;2023-08-07T09:54:36;18.00;79.60
73572;DHT22;61854;48.510;-2.770;2023-08-07T09:57:01;18.20;80.90
73572;DHT22;61854;48.510;-2.770;2023-08-07T09:59:27;18.30;79.80
73572;DHT22;61854;48.510;-2.770;2023-08-07T10:01:54;18.50;74.90
73572;DHT22;61854;48.510;-2.770;2023-08-07T10:04:23;18.70;75.50
73572;DHT22;61854;48.510;-2.770;2023-08-07T10:06:49;18.70;75.10
73572;DHT22;61854;48.510;-2.770;2023-08-07T10:09:15;18.50;70.40
73572;DHT22;61854;48.510;-2.770;2023-08-07T10:11:41;18.50;73.90
73572;DHT22;61854;48.510;-2.770;2023-08-07T10:14:09;18.60;74.90
73572;DHT22;61854;48.510;-2.770;2023-08-07T10:16:34;18.70;74.90
73572;DHT22;61854;48.510;-2.770;2023-08-07T10:19:08;18.80;68.00
73572;DHT22;61854;48.510;-2.770;2023-08-07T10:21:38;18.70;72.30
73572;DHT22;61854;48.510;-2.770;2023-08-07T10:24:05;18.60;72.60
73572;DHT22;61854;48.510;-2.770;2023-08-07T10:26:33;18.70;72.90
73572;DHT22;61854;48.510;-2.770;2023-08-07T10:29:01;19.00;70.90
73572;DHT22;61854;48.510;-2.770;2023-08-07T10:31:29;19.00;69.90
73572;DHT22;61854;48.510;-2.770;2023-08-07T10:33:56;19.00;66.90
73572;DHT22;61854;48.510;-2.770;2023-08-07T10:36:21;19.00;66.10
73572;DHT22;61854;48.510;-2.770;2023-08-07T10:38:50;19.30;65.50
73572;DHT22;61854;48.510;-2.770;2023-08-07T10:41:18;19.50;61.10
73572;DHT22;61854;48.510;-2.770;2023-08-07T10:43:45;19.60;62.20
73572;DHT22;61854;48.510;-2.770;2023-08-07T10:46:14;19.50;61.60
73572;DHT22;61854;48.510;-2.770;2023-08-07T10:48:44;19.60;60.90
73572;DHT22;61854;48.510;-2.770;2023-08-07T10:51:17;19.60;60.20
73572;DHT22;61854;48.510;-2.770;2023-08-07T10:53:45;19.60;60.70
73572;DHT22;61854;48.510;-2.770;2023-08-07T10:56:32;19.80;55.30
73572;DHT22;61854;48.510;-2.770;2023-08-07T10:59:08;20.00;52.50
73572;DHT22;61854;48.510;-2.770;2023-08-07T11:04:06;20.30;52.50
73572;DHT22;61854;48.510;-2.770;2023-08-07T11:06:34;20.50;52.80
73572;DHT22;61854;48.510;-2.770;2023-08-07T11:09:01;20.70;52.50
73572;DHT22;61854;48.510;-2.770;2023-08-07T11:11:29;20.90;53.60
73572;DHT22;61854;48.510;-2.770;2023-08-07T11:13:55;20.60;54.20
73572;DHT22;61854;48.510;-2.770;2023-08-07T11:16:21;20.60;54.10
73572;DHT22;61854;48.510;-2.770;2023-08-07T11:18:48;20.60;54.80
73572;DHT22;61854;48.510;-2.770;2023-08-07T11:21:14;20.50;55.00
73572;DHT22;61854;48.510;-2.770;2023-08-07T11:23:41;20.70;63.90
73572;DHT22;61854;48.510;-2.770;2023-08-07T11:26:08;21.00;67.30
73572;DHT22;61854;48.510;-2.770;2023-08-07T11:28:33;20.80;67.10
73572;DHT22;61854;48.510;-2.770;2023-08-07T11:31:00;20.80;70.30
73572;DHT22;61854;48.510;-2.770;2023-08-07T11:33:26;20.40;74.60
73572;DHT22;61854;48.510;-2.770;2023-08-07T11:35:53;20.50;74.60
73572;DHT22;61854;48.510;-2.770;2023-08-07T11:38:34;20.90;72.10
73572;DHT22;61854;48.510;-2.770;2023-08-07T11:41:06;20.80;72.70
73572;DHT22;61854;48.510;-2.770;2023-08-07T11:43:33;20.50;74.80
73572;DHT22;61854;48.510;-2.770;2023-08-07T11:46:02;20.70;74.90
73572;DHT22;61854;48.510;-2.770;2023-08-07T11:48:29;20.90;74.10
73572;DHT22;61854;48.510;-2.770;2023-08-07T11:50:57;20.90;73.10
73572;DHT22;61854;48.510;-2.770;2023-08-07T11:53:28;20.70;73.40
73572;DHT22;61854;48.510;-2.770;2023-08-07T11:56:03;20.60;74.30
73572;DHT22;61854;48.510;-2.770;2023-08-07T11:58:39;20.60;75.40
73572;DHT22;61854;48.510;-2.770;2023-08-07T12:01:20;20.70;76.20
73572;DHT22;61854;48.510;-2.770;2023-08-07T12:06:30;20.70;76.00
73572;DHT22;61854;48.510;-2.770;2023-08-07T12:09:05;20.50;75.30
73572;DHT22;61854;48.510;-2.770;2023-08-07T12:11:38;20.70;76.20
73572;DHT22;61854;48.510;-2.770;2023-08-07T12:14:04;20.90;75.10
73572;DHT22;61854;48.510;-2.770;2023-08-07T12:16:34;21.30;73.80
73572;DHT22;61854;48.510;-2.770;2023-08-07T12:19:00;21.20;72.50
73572;DHT22;61854;48.510;-2.770;2023-08-07T12:21:26;21.50;72.80
73572;DHT22;61854;48.510;-2.770;2023-08-07T12:23:56;21.00;71.80
73572;DHT22;61854;48.510;-2.770;2023-08-07T12:26:22;20.70;75.20
73572;DHT22;61854;48.510;-2.770;2023-08-07T12:28:48;20.80;72.90
73572;DHT22;61854;48.510;-2.770;2023-08-07T12:31:13;20.90;71.40
73572;DHT22;61854;48.510;-2.770;2023-08-07T12:33:39;20.70;73.90
73572;DHT22;61854;48.510;-2.770;2023-08-07T12:36:05;20.80;72.10
73572;DHT22;61854;48.510;-2.770;2023-08-07T12:38:31;20.90;71.60
73572;DHT22;61854;48.510;-2.770;2023-08-07T12:40:56;21.30;70.80
73572;DHT22;61854;48.510;-2.770;2023-08-07T12:43:23;21.00;70.10
73572;DHT22;61854;48.510;-2.770;2023-08-07T12:45:48;21.50;69.90
73572;DHT22;61854;48.510;-2.770;2023-08-07T12:48:14;21.50;70.40
73572;DHT22;61854;48.510;-2.770;2023-08-07T12:50:40;21.80;68.00
73572;DHT22;61854;48.510;-2.770;2023-08-07T12:53:07;22.00;66.00
73572;DHT22;61854;48.510;-2.770;2023-08-07T12:55:33;21.90;63.30
73572;DHT22;61854;48.510;-2.770;2023-08-07T12:57:58;21.80;66.20
73572;DHT22;61854;48.510;-2.770;2023-08-07T13:00:24;21.70;66.30
73572;DHT22;61854;48.510;-2.770;2023-08-07T13:02:51;21.60;67.50
73572;DHT22;61854;48.510;-2.770;2023-08-07T13:05:17;21.30;68.50
73572;DHT22;61854;48.510;-2.770;2023-08-07T13:07:44;21.40;70.10
73572;DHT22;61854;48.510;-2.770;2023-08-07T13:10:11;21.80;68.80
73572;DHT22;61854;48.510;-2.770;2023-08-07T13:12:39;21.40;70.70
73572;DHT22;61854;48.510;-2.770;2023-08-07T13:15:06;21.30;71.60
73572;DHT22;61854;48.510;-2.770;2023-08-07T13:17:37;21.30;72.70
73572;DHT22;61854;48.510;-2.770;2023-08-07T13:20:04;21.60;73.40
73572;DHT22;61854;48.510;-2.770;2023-08-07T13:22:39;21.70;70.70
73572;DHT22;61854;48.510;-2.770;2023-08-07T13:25:07;21.90;71.50
73572;DHT22;61854;48.510;-2.770;2023-08-07T13:27:33;21.90;70.20
73572;DHT22;61854;48.510;-2.770;2023-08-07T13:30:00;21.40;72.70
73572;DHT22;61854;48.510;-2.770;2023-08-07T13:32:26;21.70;73.80
73572;DHT22;61854;48.510;-2.770;2023-08-07T13:34:52;21.70;73.20
73572;DHT22;61854;48.510;-2.770;2023-08-07T13:37:18;22.50;70.50
73572;DHT22;61854;48.510;-2.770;2023-08-07T13:39:44;22.40;71.00
73572;DHT22;61854;48.510;-2.770;2023-08-07T13:42:10;22.60;68.50
73572;DHT22;61854;48.510;-2.770;2023-08-07T13:44:36;22.70;68.70
73572;DHT22;61854;48.510;-2.770;2023-08-07T13:47:02;23.00;68.60
73572;DHT22;61854;48.510;-2.770;2023-08-07T13:49:28;23.20;66.30
73572;DHT22;61854;48.510;-2.770;2023-08-07T13:51:54;22.80;66.50
73572;DHT22;61854;48.510;-2.770;2023-08-07T13:54:19;22.10;71.00
73572;DHT22;61854;48.510;-2.770;2023-08-07T13:56:45;22.50;70.60
73572;DHT22;61854;48.510;-2.770;2023-08-07T13:59:11;22.40;70.30
73572;DHT22;61854;48.510;-2.770;2023-08-07T14:01:36;22.20;71.90
73572;DHT22;61854;48.510;-2.770;2023-08-07T14:04:03;22.30;71.00
73572;DHT22;61854;48.510;-2.770;2023-08-07T14:06:28;22.20;72.40
73572;DHT22;61854;48.510;-2.770;2023-08-07T14:08:54;22.70;68.20
73572;DHT22;61854;48.510;-2.770;2023-08-07T14:11:20;22.80;67.30
73572;DHT22;61854;48.510;-2.770;2023-08-07T14:13:46;22.90;69.20
73572;DHT22;61854;48.510;-2.770;2023-08-07T14:16:12;23.40;64.70
73572;DHT22;61854;48.510;-2.770;2023-08-07T14:18:38;24.50;58.50
73572;DHT22;61854;48.510;-2.770;2023-08-07T14:21:04;25.00;56.40
73572;DHT22;61854;48.510;-2.770;2023-08-07T14:23:30;24.50;57.20
73572;DHT22;61854;48.510;-2.770;2023-08-07T14:25:56;24.80;57.90
73572;DHT22;61854;48.510;-2.770;2023-08-07T14:28:22;24.90;55.80
73572;DHT22;61854;48.510;-2.770;2023-08-07T14:30:48;25.10;54.80
73572;DHT22;61854;48.510;-2.770;2023-08-07T14:33:13;24.70;55.50
73572;DHT22;61854;48.510;-2.770;2023-08-07T14:35:39;24.50;56.10
73572;DHT22;61854;48.510;-2.770;2023-08-07T14:38:05;24.70;55.70
73572;DHT22;61854;48.510;-2.770;2023-08-07T14:40:31;24.60;54.70
73572;DHT22;61854;48.510;-2.770;2023-08-07T14:42:57;25.30;54.30
73572;DHT22;61854;48.510;-2.770;2023-08-07T14:45:22;25.40;53.90
73572;DHT22;61854;48.510;-2.770;2023-08-07T14:47:49;25.60;52.90
73572;DHT22;61854;48.510;-2.770;2023-08-07T14:50:15;26.20;53.00
73572;DHT22;61854;48.510;-2.770;2023-08-07T14:52:44;25.80;50.70
73572;DHT22;61854;48.510;-2.770;2023-08-07T14:55:10;26.20;51.70
73572;DHT22;61854;48.510;-2.770;2023-08-07T14:57:36;25.80;50.10
73572;DHT22;61854;48.510;-2.770;2023-08-07T15:00:01;25.30;51.80
73572;DHT22;61854;48.510;-2.770;2023-08-07T15:02:28;25.60;51.40
73572;DHT22;61854;48.510;-2.770;2023-08-07T15:04:53;25.20;50.40
73572;DHT22;61854;48.510;-2.770;2023-08-07T15:07:19;24.90;52.80
73572;DHT22;61854;48.510;-2.770;2023-08-07T15:09:44;24.60;55.00
73572;DHT22;61854;48.510;-2.770;2023-08-07T15:12:10;24.80;53.10
73572;DHT22;61854;48.510;-2.770;2023-08-07T15:14:36;24.50;54.60
73572;DHT22;61854;48.510;-2.770;2023-08-07T15:17:02;24.30;56.00
73572;DHT22;61854;48.510;-2.770;2023-08-07T15:19:27;24.30;56.40